sensor_id;sensor_type;location;lat;lon;timestamp;pressure;altitude;pressure_sealevel;temperature;humidity
84653;BME280;74883;48.882;2.092;2024-01-25T00:00:53;102857.75;;;10.08;96.05
84653;BME280;74883;48.882;2.092;2024-01-25T00:03:19;102856.09;;;10.04;95.60
84653;BME280;74883;48.882;2.092;2024-01-25T00:05:44;102851.91;;;9.99;95.83
84653;BME280;74883;48.882;2.092;2024-01-25T00:08:09;102849.22;;;10.02;95.87
84653;BME280;74883;48.882;2.092;2024-01-25T00:10:35;102844.84;;;10.05;95.95
84653;BME280;74883;48.882;2.092;2024-01-25T00:13:00;102845.75;;;10.03;95.65
84653;BME280;74883;48.882;2.092;2024-01-25T00:15:26;102835.47;;;9.98;95.78
84653;BME280;74883;48.882;2.092;2024-01-25T00:17:52;102833.63;;;10.03;96.17
84653;BME280;74883;48.882;2.092;2024-01-25T00:20:17;102826.84;;;9.96;95.51
84653;BME280;74883;48.882;2.092;2024-01-25T00:22:42;102824.16;;;9.99;95.64
84653;BME280;74883;48.882;2.092;2024-01-25T00:25:08;102835.31;;;10.06;96.15
84653;BME280;74883;48.882;2.092;2024-01-25T00:27:33;102826.66;;;10.05;96.03
84653;BME280;74883;48.882;2.092;2024-01-25T00:29:58;102831.03;;;10.03;95.91
84653;BME280;74883;48.882;2.092;2024-01-25T00:32:24;102825.09;;;9.97;95.96
84653;BME280;74883;48.882;2.092;2024-01-25T00:34:49;102817.38;;;9.94;95.96
84653;BME280;74883;48.882;2.092;2024-01-25T00:37:15;102817.53;;;9.86;95.84
84653;BME280;74883;48.882;2.092;2024-01-25T00:39:41;102815.78;;;9.87;95.90
84653;BME280;74883;48.882;2.092;2024-01-25T00:42:07;102820.16;;;9.83;95.92
84653;BME280;74883;48.882;2.092;2024-01-25T00:44:33;102819.38;;;9.79;95.66
84653;BME280;74883;48.882;2.092;2024-01-25T00:46:58;102823.78;;;9.76;95.86
84653;BME280;74883;48.882;2.092;2024-01-25T00:49:24;102820.34;;;9.74;95.98
84653;BME280;74883;48.882;2.092;2024-01-25T00:51:50;102817.75;;;9.74;96.13
84653;BME280;74883;48.882;2.092;2024-01-25T00:54:19;102816.97;;;9.69;95.71
84653;BME280;74883;48.882;2.092;2024-01-25T00:56:45;102812.69;;;9.68;95.85
84653;BME280;74883;48.882;2.092;2024-01-25T00:59:10;102806.69;;;9.66;95.73
84653;BME280;74883;48.882;2.092;2024-01-25T01:01:36;102804.28;;;9.55;95.77
84653;BME280;74883;48.882;2.092;2024-01-25T01:04:02;102800.66;;;9.62;96.12
84653;BME280;74883;48.882;2.092;2024-01-25T01:06:28;102798.97;;;9.61;96.05
84653;BME280;74883;48.882;2.092;2024-01-25T01:08:53;102795.47;;;9.62;96.14
84653;BME280;74883;48.882;2.092;2024-01-25T01:11:19;102793.72;;;9.64;96.11
84653;BME280;74883;48.882;2.092;2024-01-25T01:13:44;102796.38;;;9.60;95.92
84653;BME280;74883;48.882;2.092;2024-01-25T01:16:10;102793.78;;;9.60;96.47
84653;BME280;74883;48.882;2.092;2024-01-25T01:18:35;102793.88;;;9.57;95.83
84653;BME280;74883;48.882;2.092;2024-01-25T01:21:01;102789.72;;;9.47;96.18
84653;BME280;74883;48.882;2.092;2024-01-25T01:23:27;102788.88;;;9.46;95.93
84653;BME280;74883;48.882;2.092;2024-01-25T01:25:52;102777.63;;;9.46;96.25
84653;BME280;74883;48.882;2.092;2024-01-25T01:28:17;102782.06;;;9.41;96.40
84653;BME280;74883;48.882;2.092;2024-01-25T01:30:43;102781.22;;;9.39;96.39
84653;BME280;74883;48.882;2.092;2024-01-25T01:33:09;102781.31;;;9.36;96.10
84653;BME280;74883;48.882;2.092;2024-01-25T01:35:34;102789.00;;;9.39;96.42
84653;BME280;74883;48.882;2.092;2024-01-25T01:37:59;102789.88;;;9.41;96.70
84653;BME280;74883;48.882;2.092;2024-01-25T01:40:25;102789.03;;;9.37;96.14
84653;BME280;74883;48.882;2.092;2024-01-25T01:42:50;102784.75;;;9.35;96.37
84653;BME280;74883;48.882;2.092;2024-01-25T01:45:15;102791.69;;;9.36;96.66
84653;BME280;74883;48.882;2.092;2024-01-25T01:47:41;102793.38;;;9.37;96.32
84653;BME280;74883;48.882;2.092;2024-01-25T01:50:06;102790.88;;;9.32;96.40
84653;BME280;74883;48.882;2.092;2024-01-25T01:52:32;102786.44;;;9.37;96.60
84653;BME280;74883;48.882;2.092;2024-01-25T01:54:58;102790.72;;;9.40;96.60
84653;BME280;74883;48.882;2.092;2024-01-25T01:57:23;102789.81;;;9.42;96.54
84653;BME280;74883;48.882;2.092;2024-01-25T01:59:49;102780.34;;;9.40;96.26
84653;BME280;74883;48.882;2.092;2024-01-25T02:02:15;102773.50;;;9.36;96.46
84653;BME280;74883;48.882;2.092;2024-01-25T02:04:40;102781.22;;;9.40;96.41
84653;BME280;74883;48.882;2.092;2024-01-25T02:07:07;102781.22;;;9.39;96.43
84653;BME280;74883;48.882;2.092;2024-01-25T02:09:33;102777.81;;;9.37;96.63
84653;BME280;74883;48.882;2.092;2024-01-25T02:12:00;102789.00;;;9.40;96.37
84653;BME280;74883;48.882;2.092;2024-01-25T02:14:26;102785.44;;;9.44;96.47
84653;BME280;74883;48.882;2.092;2024-01-25T02:16:51;102791.44;;;9.48;96.62
84653;BME280;74883;48.882;2.092;2024-01-25T02:19:17;102794.97;;;9.45;96.57
84653;BME280;74883;48.882;2.092;2024-01-25T02:21:42;102797.47;;;9.50;96.61
84653;BME280;74883;48.882;2.092;2024-01-25T02:24:07;102802.59;;;9.53;96.92
84653;BME280;74883;48.882;2.092;2024-01-25T02:26:34;102800.06;;;9.50;96.75
84653;BME280;74883;48.882;2.092;2024-01-25T02:29:00;102797.69;;;9.36;96.76
84653;BME280;74883;48.882;2.092;2024-01-25T02:31:25;102791.50;;;9.43;96.60
84653;BME280;74883;48.882;2.092;2024-01-25T02:33:50;102785.50;;;9.43;96.61
84653;BME280;74883;48.882;2.092;2024-01-25T02:36:16;102787.31;;;9.38;96.52
84653;BME280;74883;48.882;2.092;2024-01-25T02:38:41;102782.94;;;9.40;96.71
84653;BME280;74883;48.882;2.092;2024-01-25T02:41:07;102792.56;;;9.35;96.35
84653;BME280;74883;48.882;2.092;2024-01-25T02:43:32;102782.22;;;9.33;96.43
84653;BME280;74883;48.882;2.092;2024-01-25T02:45:57;102787.31;;;9.36;96.58
84653;BME280;74883;48.882;2.092;2024-01-25T02:48:23;102779.66;;;9.30;96.32
84653;BME280;74883;48.882;2.092;2024-01-25T02:50:48;102783.16;;;9.28;96.39
84653;BME280;74883;48.882;2.092;2024-01-25T02:53:14;102782.22;;;9.32;96.41
84653;BME280;74883;48.882;2.092;2024-01-25T02:55:39;102783.19;;;9.26;96.44
84653;BME280;74883;48.882;2.092;2024-01-25T02:58:04;102786.53;;;9.33;96.73
84653;BME280;74883;48.882;2.092;2024-01-25T03:00:29;102774.50;;;9.29;96.65
84653;BME280;74883;48.882;2.092;2024-01-25T03:02:55;102778.78;;;9.30;96.78
84653;BME280;74883;48.882;2.092;2024-01-25T03:05:20;102781.47;;;9.27;96.85
84653;BME280;74883;48.882;2.092;2024-01-25T03:07:45;102783.34;;;9.19;96.61
84653;BME280;74883;48.882;2.092;2024-01-25T03:10:11;102778.09;;;9.20;96.64
84653;BME280;74883;48.882;2.092;2024-01-25T03:12:36;102776.28;;;9.27;96.62
84653;BME280;74883;48.882;2.092;2024-01-25T03:15:02;102770.19;;;9.28;96.79
84653;BME280;74883;48.882;2.092;2024-01-25T03:17:27;102762.53;;;9.22;96.50
84653;BME280;74883;48.882;2.092;2024-01-25T03:19:52;102765.38;;;9.08;96.61
84653;BME280;74883;48.882;2.092;2024-01-25T03:22:18;102775.88;;;9.00;96.76
84653;BME280;74883;48.882;2.092;2024-01-25T03:24:43;102776.81;;;8.96;96.10
84653;BME280;74883;48.882;2.092;2024-01-25T03:27:08;102776.81;;;8.96;96.35
84653;BME280;74883;48.882;2.092;2024-01-25T03:29:40;102776.94;;;8.89;96.34
84653;BME280;74883;48.882;2.092;2024-01-25T03:32:06;102779.63;;;8.84;96.58
84653;BME280;74883;48.882;2.092;2024-01-25T03:34:31;102778.78;;;8.82;96.23
84653;BME280;74883;48.882;2.092;2024-01-25T03:36:57;102775.28;;;8.83;96.60
84653;BME280;74883;48.882;2.092;2024-01-25T03:39:23;102771.88;;;8.81;96.32
84653;BME280;74883;48.882;2.092;2024-01-25T03:41:48;102772.78;;;8.80;96.74
84653;BME280;74883;48.882;2.092;2024-01-25T03:44:13;102774.53;;;8.77;96.34
84653;BME280;74883;48.882;2.092;2024-01-25T03:46:39;102771.09;;;8.76;96.53
84653;BME280;74883;48.882;2.092;2024-01-25T03:49:04;102772.78;;;8.80;96.62
84653;BME280;74883;48.882;2.092;2024-01-25T03:51:29;102777.19;;;8.74;96.76
84653;BME280;74883;48.882;2.092;2024-01-25T03:53:55;102774.53;;;8.77;96.40
84653;BME280;74883;48.882;2.092;2024-01-25T03:56:23;102759.06;;;8.72;96.59
84653;BME280;74883;48.882;2.092;2024-01-25T03:58:49;102766.78;;;8.77;97.06
84653;BME280;74883;48.882;2.092;2024-01-25T04:01:14;102759.03;;;8.75;96.93
84653;BME280;74883;48.882;2.092;2024-01-25T04:03:39;102755.53;;;8.78;96.96
84653;BME280;74883;48.882;2.092;2024-01-25T04:06:05;102753.72;;;8.81;96.92
84653;BME280;74883;48.882;2.092;2024-01-25T04:08:30;102758.88;;;8.83;96.86
84653;BME280;74883;48.882;2.092;2024-01-25T04:10:55;102764.06;;;8.84;97.08
84653;BME280;74883;48.882;2.092;2024-01-25T04:13:21;102752.88;;;8.81;96.48
84653;BME280;74883;48.882;2.092;2024-01-25T04:15:46;102752.06;;;8.77;96.72
84653;BME280;74883;48.882;2.092;2024-01-25T04:18:12;102754.66;;;8.77;97.00
84653;BME280;74883;48.882;2.092;2024-01-25T04:20:37;102751.25;;;8.75;96.86
84653;BME280;74883;48.882;2.092;2024-01-25T04:23:03;102753.06;;;8.70;96.58
84653;BME280;74883;48.882;2.092;2024-01-25T04:25:28;102762.53;;;8.73;97.31
84653;BME280;74883;48.882;2.092;2024-01-25T04:27:54;102759.94;;;8.71;96.95
84653;BME280;74883;48.882;2.092;2024-01-25T04:30:19;102755.69;;;8.69;97.03
84653;BME280;74883;48.882;2.092;2024-01-25T04:32:44;102751.25;;;8.75;97.21
84653;BME280;74883;48.882;2.092;2024-01-25T04:35:10;102750.25;;;8.82;96.96
84653;BME280;74883;48.882;2.092;2024-01-25T04:37:35;102751.09;;;8.84;96.99
84653;BME280;74883;48.882;2.092;2024-01-25T04:40:01;102752.03;;;8.80;97.25
84653;BME280;74883;48.882;2.092;2024-01-25T04:42:26;102742.47;;;8.82;97.08
84653;BME280;74883;48.882;2.092;2024-01-25T04:44:53;102743.28;;;8.86;97.05
84653;BME280;74883;48.882;2.092;2024-01-25T04:47:18;102736.34;;;8.86;96.62
84653;BME280;74883;48.882;2.092;2024-01-25T04:49:43;102732.91;;;8.87;97.32
84653;BME280;74883;48.882;2.092;2024-01-25T04:52:09;102724.38;;;8.79;97.08
84653;BME280;74883;48.882;2.092;2024-01-25T04:54:34;102733.06;;;8.77;96.92
84653;BME280;74883;48.882;2.092;2024-01-25T04:56:59;102723.38;;;8.86;97.29
84653;BME280;74883;48.882;2.092;2024-01-25T04:59:25;102726.81;;;8.88;96.75
84653;BME280;74883;48.882;2.092;2024-01-25T05:01:50;102728.50;;;8.91;97.25
84653;BME280;74883;48.882;2.092;2024-01-25T05:04:18;102721.53;;;8.93;97.10
84653;BME280;74883;48.882;2.092;2024-01-25T05:06:43;102732.78;;;8.93;96.91
84653;BME280;74883;48.882;2.092;2024-01-25T05:09:08;102725.03;;;8.92;97.18
84653;BME280;74883;48.882;2.092;2024-01-25T05:11:38;102719.84;;;8.92;97.25
84653;BME280;74883;48.882;2.092;2024-01-25T05:14:04;102721.56;;;8.91;96.81
84653;BME280;74883;48.882;2.092;2024-01-25T05:16:29;102717.28;;;8.89;97.32
84653;BME280;74883;48.882;2.092;2024-01-25T05:18:55;102710.47;;;8.83;96.71
84653;BME280;74883;48.882;2.092;2024-01-25T05:21:20;102711.25;;;8.88;97.03
84653;BME280;74883;48.882;2.092;2024-01-25T05:23:45;102715.69;;;8.82;96.82
84653;BME280;74883;48.882;2.092;2024-01-25T05:26:11;102713.13;;;8.80;97.17
84653;BME280;74883;48.882;2.092;2024-01-25T05:28:36;102703.50;;;8.87;96.88
84653;BME280;74883;48.882;2.092;2024-01-25T05:31:01;102699.94;;;8.94;97.19
84653;BME280;74883;48.882;2.092;2024-01-25T05:33:27;102700.84;;;8.91;97.16
84653;BME280;74883;48.882;2.092;2024-01-25T05:35:52;102700.19;;;8.80;97.01
84653;BME280;74883;48.882;2.092;2024-01-25T05:38:17;102693.44;;;8.70;96.68
84653;BME280;74883;48.882;2.092;2024-01-25T05:40:43;102700.25;;;8.74;96.98
84653;BME280;74883;48.882;2.092;2024-01-25T05:43:08;102701.16;;;8.73;97.03
84653;BME280;74883;48.882;2.092;2024-01-25T05:45:33;102709.75;;;8.75;97.20
84653;BME280;74883;48.882;2.092;2024-01-25T05:47:59;102716.63;;;8.78;97.41
84653;BME280;74883;48.882;2.092;2024-01-25T05:50:24;102717.50;;;8.77;97.28
84653;BME280;74883;48.882;2.092;2024-01-25T05:52:49;102720.91;;;8.80;97.33
84653;BME280;74883;48.882;2.092;2024-01-25T05:55:15;102728.63;;;8.83;97.27
84653;BME280;74883;48.882;2.092;2024-01-25T05:57:42;102717.34;;;8.86;97.33
84653;BME280;74883;48.882;2.092;2024-01-25T06:00:08;102710.38;;;8.89;97.43
84653;BME280;74883;48.882;2.092;2024-01-25T06:02:36;102700.84;;;8.91;97.39
84653;BME280;74883;48.882;2.092;2024-01-25T06:05:01;102701.88;;;8.81;97.34
84653;BME280;74883;48.882;2.092;2024-01-25T06:07:27;102702.91;;;8.71;96.80
84653;BME280;74883;48.882;2.092;2024-01-25T06:09:53;102703.88;;;8.66;97.13
84653;BME280;74883;48.882;2.092;2024-01-25T06:12:18;102703.06;;;8.62;96.87
84653;BME280;74883;48.882;2.092;2024-01-25T06:14:44;102701.41;;;8.58;97.25
84653;BME280;74883;48.882;2.092;2024-01-25T06:17:09;102708.34;;;8.56;97.04
84653;BME280;74883;48.882;2.092;2024-01-25T06:19:35;102717.16;;;8.46;97.28
84653;BME280;74883;48.882;2.092;2024-01-25T06:22:00;102717.31;;;8.34;96.72
84653;BME280;74883;48.882;2.092;2024-01-25T06:24:26;102718.97;;;8.39;96.78
84653;BME280;74883;48.882;2.092;2024-01-25T06:26:52;102711.97;;;8.46;97.11
84653;BME280;74883;48.882;2.092;2024-01-25T06:29:18;102714.63;;;8.43;97.01
84653;BME280;74883;48.882;2.092;2024-01-25T06:31:43;102711.09;;;8.47;97.50
84653;BME280;74883;48.882;2.092;2024-01-25T06:34:09;102704.06;;;8.54;97.18
84653;BME280;74883;48.882;2.092;2024-01-25T06:36:35;102707.44;;;8.59;97.46
84653;BME280;74883;48.882;2.092;2024-01-25T06:39:00;102699.72;;;8.57;97.18
84653;BME280;74883;48.882;2.092;2024-01-25T06:41:25;102710.00;;;8.62;97.22
84653;BME280;74883;48.882;2.092;2024-01-25T06:43:51;102701.25;;;8.67;97.05
84653;BME280;74883;48.882;2.092;2024-01-25T06:46:16;102708.16;;;8.68;97.48
84653;BME280;74883;48.882;2.092;2024-01-25T06:48:41;102701.25;;;8.67;97.82
84653;BME280;74883;48.882;2.092;2024-01-25T06:51:06;102701.25;;;8.67;97.43
84653;BME280;74883;48.882;2.092;2024-01-25T06:53:32;102702.06;;;8.69;97.08
84653;BME280;74883;48.882;2.092;2024-01-25T06:55:57;102696.06;;;8.67;97.21
84653;BME280;74883;48.882;2.092;2024-01-25T06:58:22;102695.13;;;8.71;97.51
84653;BME280;74883;48.882;2.092;2024-01-25T07:00:48;102687.34;;;8.73;97.58
84653;BME280;74883;48.882;2.092;2024-01-25T07:03:14;102693.38;;;8.73;97.19
84653;BME280;74883;48.882;2.092;2024-01-25T07:05:40;102697.75;;;8.70;97.15
84653;BME280;74883;48.882;2.092;2024-01-25T07:08:06;102692.59;;;8.68;97.69
84653;BME280;74883;48.882;2.092;2024-01-25T07:10:34;102693.47;;;8.69;97.11
84653;BME280;74883;48.882;2.092;2024-01-25T07:13:00;102684.81;;;8.68;97.19
84653;BME280;74883;48.882;2.092;2024-01-25T07:15:25;102678.81;;;8.66;96.84
84653;BME280;74883;48.882;2.092;2024-01-25T07:17:51;102683.22;;;8.61;97.58
84653;BME280;74883;48.882;2.092;2024-01-25T07:20:16;102684.09;;;8.60;97.07
84653;BME280;74883;48.882;2.092;2024-01-25T07:22:41;102691.88;;;8.60;96.78
84653;BME280;74883;48.882;2.092;2024-01-25T07:25:07;102695.31;;;8.61;97.25
84653;BME280;74883;48.882;2.092;2024-01-25T07:27:33;102684.94;;;8.61;97.32
84653;BME280;74883;48.882;2.092;2024-01-25T07:29:59;102688.31;;;8.66;97.58
84653;BME280;74883;48.882;2.092;2024-01-25T07:32:24;102679.63;;;8.68;96.99
84653;BME280;74883;48.882;2.092;2024-01-25T07:34:50;102668.44;;;8.66;97.33
84653;BME280;74883;48.882;2.092;2024-01-25T07:37:15;102678.13;;;8.57;97.13
84653;BME280;74883;48.882;2.092;2024-01-25T07:39:42;102682.41;;;8.58;97.09
84653;BME280;74883;48.882;2.092;2024-01-25T07:42:07;102680.66;;;8.58;97.23
84653;BME280;74883;48.882;2.092;2024-01-25T07:44:32;102680.78;;;8.52;96.59
84653;BME280;74883;48.882;2.092;2024-01-25T07:46:57;102679.88;;;8.55;97.20
84653;BME280;74883;48.882;2.092;2024-01-25T07:49:23;102676.31;;;8.60;97.47
84653;BME280;74883;48.882;2.092;2024-01-25T07:51:48;102677.31;;;8.52;97.17
84653;BME280;74883;48.882;2.092;2024-01-25T07:54:14;102675.53;;;8.55;97.85
84653;BME280;74883;48.882;2.092;2024-01-25T07:56:39;102671.91;;;8.65;97.58
84653;BME280;74883;48.882;2.092;2024-01-25T07:59:04;102676.97;;;8.71;97.41
84653;BME280;74883;48.882;2.092;2024-01-25T08:01:30;102668.19;;;8.78;97.88
84653;BME280;74883;48.882;2.092;2024-01-25T08:03:55;102675.97;;;8.78;97.35
84653;BME280;74883;48.882;2.092;2024-01-25T08:06:21;102676.75;;;8.83;97.36
84653;BME280;74883;48.882;2.092;2024-01-25T08:08:46;102676.75;;;8.83;97.60
84653;BME280;74883;48.882;2.092;2024-01-25T08:11:11;102672.31;;;8.90;97.90
84653;BME280;74883;48.882;2.092;2024-01-25T08:13:37;102678.31;;;8.93;97.60
84653;BME280;74883;48.882;2.092;2024-01-25T08:16:02;102673.94;;;8.95;97.80
84653;BME280;74883;48.882;2.092;2024-01-25T08:18:28;102672.16;;;8.99;97.27
84653;BME280;74883;48.882;2.092;2024-01-25T08:20:55;102669.50;;;9.02;97.31
84653;BME280;74883;48.882;2.092;2024-01-25T08:23:21;102663.22;;;9.14;97.50
84653;BME280;74883;48.882;2.092;2024-01-25T08:25:46;102670.03;;;9.19;97.36
84653;BME280;74883;48.882;2.092;2024-01-25T08:28:12;102674.22;;;9.26;97.98
84653;BME280;74883;48.882;2.092;2024-01-25T08:30:37;102671.50;;;9.32;97.47
84653;BME280;74883;48.882;2.092;2024-01-25T08:33:03;102666.09;;;9.41;97.49
84653;BME280;74883;48.882;2.092;2024-01-25T08:35:28;102671.19;;;9.47;97.80
84653;BME280;74883;48.882;2.092;2024-01-25T08:37:55;102668.16;;;9.68;97.72
84653;BME280;74883;48.882;2.092;2024-01-25T08:40:20;102681.91;;;9.72;97.58
84653;BME280;74883;48.882;2.092;2024-01-25T08:42:46;102678.31;;;9.77;97.86
84653;BME280;74883;48.882;2.092;2024-01-25T08:45:12;102674.81;;;9.80;97.52
84653;BME280;74883;48.882;2.092;2024-01-25T08:47:37;102682.41;;;9.89;97.78
84653;BME280;74883;48.882;2.092;2024-01-25T08:50:03;102676.09;;;9.99;97.58
84653;BME280;74883;48.882;2.092;2024-01-25T08:52:30;102672.47;;;10.06;97.83
84653;BME280;74883;48.882;2.092;2024-01-25T08:54:56;102676.63;;;10.15;97.77
84653;BME280;74883;48.882;2.092;2024-01-25T08:57:21;102680.00;;;10.18;97.63
84653;BME280;74883;48.882;2.092;2024-01-25T08:59:46;102677.28;;;10.24;97.42
84653;BME280;74883;48.882;2.092;2024-01-25T09:02:12;102676.38;;;10.25;97.54
84653;BME280;74883;48.882;2.092;2024-01-25T09:04:37;102682.38;;;10.27;97.57
84653;BME280;74883;48.882;2.092;2024-01-25T09:07:03;102680.59;;;10.29;97.13
84653;BME280;74883;48.882;2.092;2024-01-25T09:09:28;102685.78;;;10.29;97.13
84653;BME280;74883;48.882;2.092;2024-01-25T09:11:54;102682.22;;;10.35;97.25
84653;BME280;74883;48.882;2.092;2024-01-25T09:14:19;102683.03;;;10.37;97.39
84653;BME280;74883;48.882;2.092;2024-01-25T09:16:44;102681.22;;;10.39;97.59
84653;BME280;74883;48.882;2.092;2024-01-25T09:19:10;102683.69;;;10.45;97.16
84653;BME280;74883;48.882;2.092;2024-01-25T09:21:38;102679.44;;;10.42;97.31
84653;BME280;74883;48.882;2.092;2024-01-25T09:24:04;102682.03;;;10.42;97.05
84653;BME280;74883;48.882;2.092;2024-01-25T09:26:30;102677.72;;;10.41;97.25
84653;BME280;74883;48.882;2.092;2024-01-25T09:28:55;102681.94;;;10.45;97.45
84653;BME280;74883;48.882;2.092;2024-01-25T09:31:20;102682.59;;;10.54;97.38
84653;BME280;74883;48.882;2.092;2024-01-25T09:33:45;102680.00;;;10.54;97.43
84653;BME280;74883;48.882;2.092;2024-01-25T09:36:11;102675.25;;;10.71;97.28
84653;BME280;74883;48.882;2.092;2024-01-25T09:38:36;102670.03;;;10.71;96.87
84653;BME280;74883;48.882;2.092;2024-01-25T09:41:02;102672.66;;;10.71;96.89
84653;BME280;74883;48.882;2.092;2024-01-25T09:43:27;102674.25;;;10.75;97.28
84653;BME280;74883;48.882;2.092;2024-01-25T09:45:53;102680.31;;;10.75;97.17
84653;BME280;74883;48.882;2.092;2024-01-25T09:48:22;102684.50;;;10.81;97.10
84653;BME280;74883;48.882;2.092;2024-01-25T09:50:47;102686.03;;;10.88;96.93
84653;BME280;74883;48.882;2.092;2024-01-25T09:53:22;102680.81;;;10.89;96.91
84653;BME280;74883;48.882;2.092;2024-01-25T09:56:06;102684.25;;;10.90;96.46
84653;BME280;74883;48.882;2.092;2024-01-25T10:01:09;102684.88;;;10.99;97.14
84653;BME280;74883;48.882;2.092;2024-01-25T10:03:35;102689.09;;;11.03;96.78
84653;BME280;74883;48.882;2.092;2024-01-25T10:06:01;102689.88;;;11.07;96.83
84653;BME280;74883;48.882;2.092;2024-01-25T10:08:26;102696.81;;;11.06;96.68
84653;BME280;74883;48.882;2.092;2024-01-25T10:10:51;102694.09;;;11.11;96.98
84653;BME280;74883;48.882;2.092;2024-01-25T10:13:19;102699.22;;;11.14;96.84
84653;BME280;74883;48.882;2.092;2024-01-25T10:15:45;102701.00;;;11.12;96.36
84653;BME280;74883;48.882;2.092;2024-01-25T10:18:12;102711.44;;;11.12;96.52
84653;BME280;74883;48.882;2.092;2024-01-25T10:20:44;102707.84;;;11.16;96.66
84653;BME280;74883;48.882;2.092;2024-01-25T10:23:10;102705.16;;;11.19;96.74
84653;BME280;74883;48.882;2.092;2024-01-25T10:25:36;102700.75;;;11.21;96.47
84653;BME280;74883;48.882;2.092;2024-01-25T10:28:03;102702.34;;;11.27;96.79
84653;BME280;74883;48.882;2.092;2024-01-25T10:30:32;102705.72;;;11.30;96.59
84653;BME280;74883;48.882;2.092;2024-01-25T10:32:58;102705.66;;;11.32;96.70
84653;BME280;74883;48.882;2.092;2024-01-25T10:35:25;102700.31;;;11.36;96.80
84653;BME280;74883;48.882;2.092;2024-01-25T10:37:51;102701.16;;;11.38;96.88
84653;BME280;74883;48.882;2.092;2024-01-25T10:40:18;102700.09;;;11.45;97.26
84653;BME280;74883;48.882;2.092;2024-01-25T10:42:44;102699.16;;;11.46;96.65
84653;BME280;74883;48.882;2.092;2024-01-25T10:45:09;102697.34;;;11.50;96.48
84653;BME280;74883;48.882;2.092;2024-01-25T10:47:35;102692.88;;;11.53;96.71
84653;BME280;74883;48.882;2.092;2024-01-25T10:50:01;102689.44;;;11.53;97.12
84653;BME280;74883;48.882;2.092;2024-01-25T10:52:31;102679.00;;;11.53;96.39
84653;BME280;74883;48.882;2.092;2024-01-25T10:54:57;102684.94;;;11.58;96.58
84653;BME280;74883;48.882;2.092;2024-01-25T10:57:23;102683.81;;;11.66;96.56
84653;BME280;74883;48.882;2.092;2024-01-25T10:59:48;102678.34;;;11.75;96.43
84653;BME280;74883;48.882;2.092;2024-01-25T11:02:14;102675.53;;;11.83;96.21
84653;BME280;74883;48.882;2.092;2024-01-25T11:04:39;102657.06;;;11.91;96.25
84653;BME280;74883;48.882;2.092;2024-01-25T11:07:08;102653.56;;;11.92;96.20
84653;BME280;74883;48.882;2.092;2024-01-25T11:09:35;102644.88;;;11.91;96.21
84653;BME280;74883;48.882;2.092;2024-01-25T11:12:11;102633.94;;;11.80;96.09
84653;BME280;74883;48.882;2.092;2024-01-25T11:14:38;102623.63;;;11.75;95.68
84653;BME280;74883;48.882;2.092;2024-01-25T11:17:22;102612.03;;;11.85;95.56
84653;BME280;74883;48.882;2.092;2024-01-25T11:19:49;102602.28;;;11.92;95.41
84653;BME280;74883;48.882;2.092;2024-01-25T11:22:15;102607.09;;;12.04;95.33
84653;BME280;74883;48.882;2.092;2024-01-25T11:24:41;102598.88;;;12.16;95.41
84653;BME280;74883;48.882;2.092;2024-01-25T11:27:09;102599.47;;;12.24;94.14
84653;BME280;74883;48.882;2.092;2024-01-25T11:29:35;102606.19;;;12.31;94.98
84653;BME280;74883;48.882;2.092;2024-01-25T11:32:00;102608.63;;;12.36;94.62
84653;BME280;74883;48.882;2.092;2024-01-25T11:34:28;102595.66;;;12.34;94.90
84653;BME280;74883;48.882;2.092;2024-01-25T11:36:53;102597.53;;;12.31;93.65
84653;BME280;74883;48.882;2.092;2024-01-25T11:39:18;102592.97;;;12.36;93.85
84653;BME280;74883;48.882;2.092;2024-01-25T11:41:44;102599.91;;;12.37;93.78
84653;BME280;74883;48.882;2.092;2024-01-25T11:44:11;102599.59;;;12.46;94.46
84653;BME280;74883;48.882;2.092;2024-01-25T11:46:36;102588.13;;;12.51;94.44
84653;BME280;74883;48.882;2.092;2024-01-25T11:49:02;102583.53;;;12.58;94.82
84653;BME280;74883;48.882;2.092;2024-01-25T11:51:27;102585.34;;;12.56;93.80
84653;BME280;74883;48.882;2.092;2024-01-25T11:53:53;102590.88;;;12.47;92.83
84653;BME280;74883;48.882;2.092;2024-01-25T11:56:26;102591.06;;;12.41;92.16
84653;BME280;74883;48.882;2.092;2024-01-25T11:58:53;102584.16;;;12.40;93.06
84653;BME280;74883;48.882;2.092;2024-01-25T12:01:21;102584.91;;;12.43;93.84
84653;BME280;74883;48.882;2.092;2024-01-25T12:03:47;102585.03;;;12.40;93.98
84653;BME280;74883;48.882;2.092;2024-01-25T12:06:12;102582.81;;;12.53;93.86
84653;BME280;74883;48.882;2.092;2024-01-25T12:08:38;102573.31;;;12.52;93.01
84653;BME280;74883;48.882;2.092;2024-01-25T12:11:08;102571.28;;;12.60;94.17
84653;BME280;74883;48.882;2.092;2024-01-25T12:13:41;102576.59;;;12.57;93.14
84653;BME280;74883;48.882;2.092;2024-01-25T12:16:08;102571.38;;;12.57;93.68
84653;BME280;74883;48.882;2.092;2024-01-25T12:18:34;102567.41;;;12.47;93.10
84653;BME280;74883;48.882;2.092;2024-01-25T12:21:03;102551.06;;;12.42;93.45
84653;BME280;74883;48.882;2.092;2024-01-25T12:23:36;102538.81;;;12.44;93.28
84653;BME280;74883;48.882;2.092;2024-01-25T12:26:03;102534.31;;;12.47;92.55
84653;BME280;74883;48.882;2.092;2024-01-25T12:28:30;102540.47;;;12.46;92.49
84653;BME280;74883;48.882;2.092;2024-01-25T12:30:56;102533.38;;;12.50;92.20
84653;BME280;74883;48.882;2.092;2024-01-25T12:33:22;102534.50;;;12.43;91.68
84653;BME280;74883;48.882;2.092;2024-01-25T12:35:47;102531.78;;;12.46;92.32
84653;BME280;74883;48.882;2.092;2024-01-25T12:38:13;102523.78;;;12.50;91.70
84653;BME280;74883;48.882;2.092;2024-01-25T12:40:38;102524.56;;;12.54;90.79
84653;BME280;74883;48.882;2.092;2024-01-25T12:43:04;102522.66;;;12.57;91.45
84653;BME280;74883;48.882;2.092;2024-01-25T12:45:29;102521.78;;;12.59;91.63
84653;BME280;74883;48.882;2.092;2024-01-25T12:47:54;102525.19;;;12.61;91.78
84653;BME280;74883;48.882;2.092;2024-01-25T12:50:20;102522.41;;;12.65;92.43
84653;BME280;74883;48.882;2.092;2024-01-25T12:52:46;102518.59;;;12.74;93.03